Aérodrome :
LOGIN :

S'inscrire | Disclaimer

   EN    FR    IT 

 










Légende :    VFR   VFR Marginal   IFR   IFR Intensif   IFR Très Intensif
Visi : 
Plafond : 
>= 8 km
>= 3000ft
5 à 8 km
1000 à 3000 ft
1500m à 5 km
500 à 1000 ft
800 à 1500m
200 à 500 ft
< 800m
< 200 ft
Symboles :   Orages  Brouillard  Fortes neiges  Fortes précipitations  Vent > 20 kt
SIGMETs :   Divers  Orages  Givrage  Turbulence  Onde Orograph.  Cendres Volcan.







- Altitude de l'aérodrome : 299 ft
- Code IATA : EDM
- Voir les cartes d'approche


LFRI - La Roche Sur Yon - Les Ajoncs

DERNIER METAR :
  • 230930Z AUTO 18007KT 160V220 CAVOK 18/15 Q1017 TEMPO 4000 SHRA BKN020TCU

METARs EXPIRÉS :
  • 230900Z AUTO 17007KT 9999 ///TCU 17/15 Q1017 TEMPO 4000 SHRA
  • 230830Z AUTO 17006KT 9999 ///TCU 16/15 Q1016 TEMPO 4000 SHRA
  • 230800Z AUTO 17006KT 9999 FEW024 BKN078 BKN150 15/14 Q1016 TEMPO 4000 SHRA BKN020TCU
  • 230730Z AUTO 16005KT 9999 FEW021 BKN078 OVC170 14/14 Q1016 TEMPO 4000 SHRA BKN020TCU
  • 230700Z AUTO 15005KT CAVOK 14/13 Q1016 TEMPO 4000 SHRA BKN020TCU

TAF TAF LFRI
Valide du 23 à 06h jusqu'au 24 à 06h UTC


230500Z 2306/2406 17005KT 9999 SCT025
BECMG 2309/2312 20010KT
TEMPO 2306/2313 4000 SHRA BKN020TCU
BECMG 2314/2316 BKN020
TEMPO 2315/2323 -RA BKN014
BECMG 2323/2401 BKN012
TEMPO 2400/2406 2000 RA OVC005
Pas de NOTAMs connus pour ce terrain.



MET'MAP, la Météo Aéronautique d'un coup d'oeil ! - Copyright ORBIFLY Décembre 2007 - Disclaimer

ORBIFLY MET'MAP TEAM :

Programmation & Développement : Alexandra Zaïnal
Conception & Développement : Baudouin d'Aumeries
Co-Programmation & Développement : Marc-Olivier Méhu
Soutien technique & logistique : Manuel Goepfert

Contact : metmap@orbifly.com




SOURCES & CREDITS :

   NOAA